<?xml version="1.0" encoding="UTF-8" standalone="no" ?>
<gpx xmlns="http://www.topografix.com/GPX/1/1" xmlns:xsi="http://www.w3.org/2001/XMLSchema-instance" xsi:schemaLocation="http://www.topografix.com/GPX/1/1 http://www.topografix.com/GPX/1/1/gpx.xsd" version="1.1" creator="VisuGPX - https://www.visugpx.com">
  <metadata>
    <name>L\'Etroit Boss</name>
    <desc><![CDATA[L\'Etroit Boss]]></desc>
  </metadata>
  <trk>
    <name><![CDATA[19/10/2014 9:07]]></name>
    <trkseg>
      <trkpt lat="47.51799" lon="6.77465">
        <ele>352.9</ele>
        <time>2014-10-19T07:08:00Z</time>
      </trkpt>
      <trkpt lat="47.5181" lon="6.77475">
        <ele>383.9</ele>
        <time>2014-10-19T07:08:37Z</time>
      </trkpt>
      <trkpt lat="47.51793" lon="6.77476">
        <ele>304.4</ele>
        <time>2014-10-19T07:12:08Z</time>
      </trkpt>
      <trkpt lat="47.51802" lon="6.77475">
        <ele>330.9</ele>
        <time>2014-10-19T07:12:35Z</time>
      </trkpt>
      <trkpt lat="47.51791" lon="6.77467">
        <ele>322.6</ele>
        <time>2014-10-19T07:13:48Z</time>
      </trkpt>
      <trkpt lat="47.51804" lon="6.77474">
        <ele>369.9</ele>
        <time>2014-10-19T07:14:36Z</time>
      </trkpt>
      <trkpt lat="47.51786" lon="6.77474">
        <ele>327.5</ele>
        <time>2014-10-19T07:15:02Z</time>
      </trkpt>
      <trkpt lat="47.51793" lon="6.77467">
        <ele>355.8</ele>
        <time>2014-10-19T07:15:38Z</time>
      </trkpt>
      <trkpt lat="47.51799" lon="6.77486">
        <ele>363.2</ele>
        <time>2014-10-19T07:15:53Z</time>
      </trkpt>
      <trkpt lat="47.51729" lon="6.77467">
        <ele>371.6</ele>
        <time>2014-10-19T07:16:19Z</time>
      </trkpt>
      <trkpt lat="47.51708" lon="6.7755">
        <ele>385.7</ele>
        <time>2014-10-19T07:16:36Z</time>
      </trkpt>
      <trkpt lat="47.51492" lon="6.77287">
        <ele>368.7</ele>
        <time>2014-10-19T07:17:21Z</time>
      </trkpt>
      <trkpt lat="47.51481" lon="6.77203">
        <ele>368.2</ele>
        <time>2014-10-19T07:17:29Z</time>
      </trkpt>
      <trkpt lat="47.51472" lon="6.77193">
        <ele>367.5</ele>
        <time>2014-10-19T07:17:31Z</time>
      </trkpt>
      <trkpt lat="47.51327" lon="6.77281">
        <ele>373.1</ele>
        <time>2014-10-19T07:18:08Z</time>
      </trkpt>
      <trkpt lat="47.5126" lon="6.77243">
        <ele>379</ele>
        <time>2014-10-19T07:18:29Z</time>
      </trkpt>
      <trkpt lat="47.51165" lon="6.77063">
        <ele>379</ele>
        <time>2014-10-19T07:18:59Z</time>
      </trkpt>
      <trkpt lat="47.50999" lon="6.76922">
        <ele>379.5</ele>
        <time>2014-10-19T07:19:33Z</time>
      </trkpt>
      <trkpt lat="47.50991" lon="6.76897">
        <ele>378</ele>
        <time>2014-10-19T07:19:37Z</time>
      </trkpt>
      <trkpt lat="47.50929" lon="6.76854">
        <ele>383.5</ele>
        <time>2014-10-19T07:19:53Z</time>
      </trkpt>
      <trkpt lat="47.50826" lon="6.76594">
        <ele>391.5</ele>
        <time>2014-10-19T07:20:53Z</time>
      </trkpt>
      <trkpt lat="47.50687" lon="6.76587">
        <ele>390.8</ele>
        <time>2014-10-19T07:21:45Z</time>
      </trkpt>
      <trkpt lat="47.50313" lon="6.76731">
        <ele>404.1</ele>
        <time>2014-10-19T07:24:12Z</time>
      </trkpt>
      <trkpt lat="47.50247" lon="6.76742">
        <ele>408.4</ele>
        <time>2014-10-19T07:24:31Z</time>
      </trkpt>
      <trkpt lat="47.50195" lon="6.76582">
        <ele>404.5</ele>
        <time>2014-10-19T07:25:13Z</time>
      </trkpt>
      <trkpt lat="47.50212" lon="6.76567">
        <ele>396.6</ele>
        <time>2014-10-19T07:25:22Z</time>
      </trkpt>
      <trkpt lat="47.50224" lon="6.76507">
        <ele>389.4</ele>
        <time>2014-10-19T07:25:34Z</time>
      </trkpt>
      <trkpt lat="47.50214" lon="6.76447">
        <ele>388.8</ele>
        <time>2014-10-19T07:25:39Z</time>
      </trkpt>
      <trkpt lat="47.50229" lon="6.7644">
        <ele>386.3</ele>
        <time>2014-10-19T07:25:40Z</time>
      </trkpt>
      <trkpt lat="47.5024" lon="6.76398">
        <ele>383.3</ele>
        <time>2014-10-19T07:25:45Z</time>
      </trkpt>
      <trkpt lat="47.50089" lon="6.76056">
        <ele>349.9</ele>
        <time>2014-10-19T07:26:28Z</time>
      </trkpt>
      <trkpt lat="47.50059" lon="6.76019">
        <ele>352.6</ele>
        <time>2014-10-19T07:26:31Z</time>
      </trkpt>
      <trkpt lat="47.49951" lon="6.75774">
        <ele>365.3</ele>
        <time>2014-10-19T07:26:53Z</time>
      </trkpt>
      <trkpt lat="47.49829" lon="6.75768">
        <ele>364.1</ele>
        <time>2014-10-19T07:27:06Z</time>
      </trkpt>
      <trkpt lat="47.49601" lon="6.75787">
        <ele>352.8</ele>
        <time>2014-10-19T07:27:31Z</time>
      </trkpt>
      <trkpt lat="47.49569" lon="6.75773">
        <ele>350.2</ele>
        <time>2014-10-19T07:27:37Z</time>
      </trkpt>
      <trkpt lat="47.496" lon="6.7571">
        <ele>328.9</ele>
        <time>2014-10-19T07:27:55Z</time>
      </trkpt>
      <trkpt lat="47.49599" lon="6.7569">
        <ele>326.2</ele>
        <time>2014-10-19T07:27:57Z</time>
      </trkpt>
      <trkpt lat="47.49573" lon="6.75662">
        <ele>325</ele>
        <time>2014-10-19T07:28:03Z</time>
      </trkpt>
      <trkpt lat="47.49536" lon="6.75712">
        <ele>322.6</ele>
        <time>2014-10-19T07:28:10Z</time>
      </trkpt>
      <trkpt lat="47.4949" lon="6.75739">
        <ele>322.6</ele>
        <time>2014-10-19T07:28:17Z</time>
      </trkpt>
      <trkpt lat="47.49465" lon="6.75695">
        <ele>319.3</ele>
        <time>2014-10-19T07:28:24Z</time>
      </trkpt>
      <trkpt lat="47.49446" lon="6.75698">
        <ele>320.6</ele>
        <time>2014-10-19T07:28:28Z</time>
      </trkpt>
      <trkpt lat="47.49429" lon="6.75666">
        <ele>319.7</ele>
        <time>2014-10-19T07:28:34Z</time>
      </trkpt>
      <trkpt lat="47.49317" lon="6.75751">
        <ele>319</ele>
        <time>2014-10-19T07:29:03Z</time>
      </trkpt>
      <trkpt lat="47.49264" lon="6.75815">
        <ele>313.6</ele>
        <time>2014-10-19T07:29:14Z</time>
      </trkpt>
      <trkpt lat="47.49158" lon="6.76052">
        <ele>319.8</ele>
        <time>2014-10-19T07:29:45Z</time>
      </trkpt>
      <trkpt lat="47.49135" lon="6.76145">
        <ele>318.3</ele>
        <time>2014-10-19T07:29:56Z</time>
      </trkpt>
      <trkpt lat="47.49122" lon="6.76497">
        <ele>319.6</ele>
        <time>2014-10-19T07:30:35Z</time>
      </trkpt>
      <trkpt lat="47.49131" lon="6.76521">
        <ele>319.4</ele>
        <time>2014-10-19T07:30:38Z</time>
      </trkpt>
      <trkpt lat="47.49169" lon="6.76509">
        <ele>320.9</ele>
        <time>2014-10-19T07:30:45Z</time>
      </trkpt>
      <trkpt lat="47.49188" lon="6.76479">
        <ele>320.4</ele>
        <time>2014-10-19T07:30:53Z</time>
      </trkpt>
      <trkpt lat="47.49179" lon="6.76502">
        <ele>319.2</ele>
        <time>2014-10-19T07:35:26Z</time>
      </trkpt>
      <trkpt lat="47.49123" lon="6.76531">
        <ele>315.9</ele>
        <time>2014-10-19T07:35:38Z</time>
      </trkpt>
      <trkpt lat="47.49154" lon="6.76831">
        <ele>321.8</ele>
        <time>2014-10-19T07:36:15Z</time>
      </trkpt>
      <trkpt lat="47.49151" lon="6.76984">
        <ele>324.4</ele>
        <time>2014-10-19T07:36:34Z</time>
      </trkpt>
      <trkpt lat="47.49166" lon="6.77021">
        <ele>319.1</ele>
        <time>2014-10-19T07:36:39Z</time>
      </trkpt>
      <trkpt lat="47.49185" lon="6.7717">
        <ele>317.7</ele>
        <time>2014-10-19T07:37:02Z</time>
      </trkpt>
      <trkpt lat="47.49176" lon="6.77333">
        <ele>317.8</ele>
        <time>2014-10-19T07:37:25Z</time>
      </trkpt>
      <trkpt lat="47.48957" lon="6.77314">
        <ele>316.7</ele>
        <time>2014-10-19T07:38:04Z</time>
      </trkpt>
      <trkpt lat="47.48838" lon="6.77268">
        <ele>316.7</ele>
        <time>2014-10-19T07:38:25Z</time>
      </trkpt>
      <trkpt lat="47.4864" lon="6.77095">
        <ele>315.5</ele>
        <time>2014-10-19T07:39:01Z</time>
      </trkpt>
      <trkpt lat="47.48295" lon="6.76871">
        <ele>319.2</ele>
        <time>2014-10-19T07:39:56Z</time>
      </trkpt>
      <trkpt lat="47.48239" lon="6.76799">
        <ele>317.5</ele>
        <time>2014-10-19T07:40:08Z</time>
      </trkpt>
      <trkpt lat="47.48179" lon="6.76766">
        <ele>315.8</ele>
        <time>2014-10-19T07:40:18Z</time>
      </trkpt>
      <trkpt lat="47.48107" lon="6.76638">
        <ele>320.7</ele>
        <time>2014-10-19T07:40:38Z</time>
      </trkpt>
      <trkpt lat="47.4811" lon="6.76529">
        <ele>316.1</ele>
        <time>2014-10-19T07:40:59Z</time>
      </trkpt>
      <trkpt lat="47.48096" lon="6.76526">
        <ele>314.6</ele>
        <time>2014-10-19T07:41:02Z</time>
      </trkpt>
      <trkpt lat="47.47963" lon="6.76616">
        <ele>311.1</ele>
        <time>2014-10-19T07:41:30Z</time>
      </trkpt>
      <trkpt lat="47.47952" lon="6.76608">
        <ele>314.1</ele>
        <time>2014-10-19T07:41:34Z</time>
      </trkpt>
      <trkpt lat="47.47912" lon="6.76426">
        <ele>313.5</ele>
        <time>2014-10-19T07:41:53Z</time>
      </trkpt>
      <trkpt lat="47.47838" lon="6.76284">
        <ele>318.2</ele>
        <time>2014-10-19T07:42:11Z</time>
      </trkpt>
      <trkpt lat="47.47778" lon="6.76242">
        <ele>319.1</ele>
        <time>2014-10-19T07:42:21Z</time>
      </trkpt>
      <trkpt lat="47.4768" lon="6.76087">
        <ele>312</ele>
        <time>2014-10-19T07:42:44Z</time>
      </trkpt>
      <trkpt lat="47.47666" lon="6.76093">
        <ele>313.8</ele>
        <time>2014-10-19T07:42:48Z</time>
      </trkpt>
      <trkpt lat="47.47611" lon="6.76269">
        <ele>314.6</ele>
        <time>2014-10-19T07:43:11Z</time>
      </trkpt>
      <trkpt lat="47.47544" lon="6.76409">
        <ele>317.3</ele>
        <time>2014-10-19T07:43:29Z</time>
      </trkpt>
      <trkpt lat="47.47506" lon="6.76454">
        <ele>313.3</ele>
        <time>2014-10-19T07:43:38Z</time>
      </trkpt>
      <trkpt lat="47.47447" lon="6.7644">
        <ele>318</ele>
        <time>2014-10-19T07:43:53Z</time>
      </trkpt>
      <trkpt lat="47.47427" lon="6.76458">
        <ele>320.3</ele>
        <time>2014-10-19T07:43:59Z</time>
      </trkpt>
      <trkpt lat="47.47369" lon="6.76407">
        <ele>314.9</ele>
        <time>2014-10-19T07:44:12Z</time>
      </trkpt>
      <trkpt lat="47.47305" lon="6.76375">
        <ele>318.4</ele>
        <time>2014-10-19T07:44:25Z</time>
      </trkpt>
      <trkpt lat="47.47251" lon="6.76391">
        <ele>319.7</ele>
        <time>2014-10-19T07:44:35Z</time>
      </trkpt>
      <trkpt lat="47.46824" lon="6.76312">
        <ele>324.5</ele>
        <time>2014-10-19T07:46:01Z</time>
      </trkpt>
      <trkpt lat="47.46743" lon="6.76284">
        <ele>321.8</ele>
        <time>2014-10-19T07:46:18Z</time>
      </trkpt>
      <trkpt lat="47.46653" lon="6.76301">
        <ele>329.9</ele>
        <time>2014-10-19T07:46:40Z</time>
      </trkpt>
      <trkpt lat="47.46408" lon="6.76269">
        <ele>319.5</ele>
        <time>2014-10-19T07:48:21Z</time>
      </trkpt>
      <trkpt lat="47.46305" lon="6.76238">
        <ele>320.2</ele>
        <time>2014-10-19T07:48:45Z</time>
      </trkpt>
      <trkpt lat="47.46222" lon="6.76153">
        <ele>324.6</ele>
        <time>2014-10-19T07:49:09Z</time>
      </trkpt>
      <trkpt lat="47.46148" lon="6.76052">
        <ele>333.5</ele>
        <time>2014-10-19T07:49:33Z</time>
      </trkpt>
      <trkpt lat="47.4609" lon="6.75903">
        <ele>325.9</ele>
        <time>2014-10-19T07:50:03Z</time>
      </trkpt>
      <trkpt lat="47.45917" lon="6.75717">
        <ele>352.4</ele>
        <time>2014-10-19T07:50:48Z</time>
      </trkpt>
      <trkpt lat="47.45777" lon="6.75593">
        <ele>350.2</ele>
        <time>2014-10-19T07:51:16Z</time>
      </trkpt>
      <trkpt lat="47.45714" lon="6.75478">
        <ele>352</ele>
        <time>2014-10-19T07:51:36Z</time>
      </trkpt>
      <trkpt lat="47.45642" lon="6.754">
        <ele>352.3</ele>
        <time>2014-10-19T07:51:53Z</time>
      </trkpt>
      <trkpt lat="47.45494" lon="6.75319">
        <ele>346.8</ele>
        <time>2014-10-19T07:52:21Z</time>
      </trkpt>
      <trkpt lat="47.4541" lon="6.75293">
        <ele>347.1</ele>
        <time>2014-10-19T07:52:37Z</time>
      </trkpt>
      <trkpt lat="47.4536" lon="6.75302">
        <ele>348.4</ele>
        <time>2014-10-19T07:52:48Z</time>
      </trkpt>
      <trkpt lat="47.4516" lon="6.75412">
        <ele>347.2</ele>
        <time>2014-10-19T07:53:26Z</time>
      </trkpt>
      <trkpt lat="47.45056" lon="6.75435">
        <ele>349.2</ele>
        <time>2014-10-19T07:53:45Z</time>
      </trkpt>
      <trkpt lat="47.44893" lon="6.75422">
        <ele>352.9</ele>
        <time>2014-10-19T07:54:17Z</time>
      </trkpt>
      <trkpt lat="47.4475" lon="6.75449">
        <ele>356.9</ele>
        <time>2014-10-19T07:54:44Z</time>
      </trkpt>
      <trkpt lat="47.44528" lon="6.75445">
        <ele>361.2</ele>
        <time>2014-10-19T07:55:25Z</time>
      </trkpt>
      <trkpt lat="47.44477" lon="6.7542">
        <ele>360.9</ele>
        <time>2014-10-19T07:55:35Z</time>
      </trkpt>
      <trkpt lat="47.44372" lon="6.75317">
        <ele>364.6</ele>
        <time>2014-10-19T07:55:58Z</time>
      </trkpt>
      <trkpt lat="47.44311" lon="6.75301">
        <ele>363.3</ele>
        <time>2014-10-19T07:56:09Z</time>
      </trkpt>
      <trkpt lat="47.4421" lon="6.75223">
        <ele>363.4</ele>
        <time>2014-10-19T07:56:33Z</time>
      </trkpt>
      <trkpt lat="47.44139" lon="6.75134">
        <ele>366.3</ele>
        <time>2014-10-19T07:56:53Z</time>
      </trkpt>
      <trkpt lat="47.44002" lon="6.74871">
        <ele>369.7</ele>
        <time>2014-10-19T07:57:36Z</time>
      </trkpt>
      <trkpt lat="47.43942" lon="6.74803">
        <ele>372.3</ele>
        <time>2014-10-19T07:57:52Z</time>
      </trkpt>
      <trkpt lat="47.43879" lon="6.74785">
        <ele>373</ele>
        <time>2014-10-19T07:58:03Z</time>
      </trkpt>
      <trkpt lat="47.43803" lon="6.74693">
        <ele>374.1</ele>
        <time>2014-10-19T07:58:22Z</time>
      </trkpt>
      <trkpt lat="47.43585" lon="6.74486">
        <ele>396.8</ele>
        <time>2014-10-19T07:59:38Z</time>
      </trkpt>
      <trkpt lat="47.43512" lon="6.74448">
        <ele>394.5</ele>
        <time>2014-10-19T07:59:57Z</time>
      </trkpt>
      <trkpt lat="47.43463" lon="6.74446">
        <ele>392</ele>
        <time>2014-10-19T08:00:07Z</time>
      </trkpt>
      <trkpt lat="47.43321" lon="6.74376">
        <ele>387.8</ele>
        <time>2014-10-19T08:00:44Z</time>
      </trkpt>
      <trkpt lat="47.4329" lon="6.74342">
        <ele>385.8</ele>
        <time>2014-10-19T08:02:45Z</time>
      </trkpt>
      <trkpt lat="47.4313" lon="6.74325">
        <ele>383.1</ele>
        <time>2014-10-19T08:03:23Z</time>
      </trkpt>
      <trkpt lat="47.4305" lon="6.74382">
        <ele>385</ele>
        <time>2014-10-19T08:04:03Z</time>
      </trkpt>
      <trkpt lat="47.42972" lon="6.74414">
        <ele>388.3</ele>
        <time>2014-10-19T08:04:31Z</time>
      </trkpt>
      <trkpt lat="47.42887" lon="6.74387">
        <ele>326.3</ele>
        <time>2014-10-19T08:05:08Z</time>
      </trkpt>
      <trkpt lat="47.42796" lon="6.74323">
        <ele>280.8</ele>
        <time>2014-10-19T08:05:40Z</time>
      </trkpt>
      <trkpt lat="47.42713" lon="6.7432">
        <ele>290.2</ele>
        <time>2014-10-19T08:05:58Z</time>
      </trkpt>
      <trkpt lat="47.42645" lon="6.74344">
        <ele>289.2</ele>
        <time>2014-10-19T08:06:20Z</time>
      </trkpt>
      <trkpt lat="47.42431" lon="6.74334">
        <ele>277.9</ele>
        <time>2014-10-19T08:07:39Z</time>
      </trkpt>
      <trkpt lat="47.42347" lon="6.7423">
        <ele>386.7</ele>
        <time>2014-10-19T08:08:36Z</time>
      </trkpt>
      <trkpt lat="47.4231" lon="6.74117">
        <ele>404.6</ele>
        <time>2014-10-19T08:09:59Z</time>
      </trkpt>
      <trkpt lat="47.4231" lon="6.74017">
        <ele>416.1</ele>
        <time>2014-10-19T08:11:28Z</time>
      </trkpt>
      <trkpt lat="47.4226" lon="6.73906">
        <ele>437.2</ele>
        <time>2014-10-19T08:12:25Z</time>
      </trkpt>
      <trkpt lat="47.42247" lon="6.73826">
        <ele>442.5</ele>
        <time>2014-10-19T08:13:05Z</time>
      </trkpt>
      <trkpt lat="47.42193" lon="6.7375">
        <ele>457</ele>
        <time>2014-10-19T08:13:24Z</time>
      </trkpt>
      <trkpt lat="47.42202" lon="6.73655">
        <ele>448</ele>
        <time>2014-10-19T08:14:08Z</time>
      </trkpt>
      <trkpt lat="47.42183" lon="6.73647">
        <ele>446.7</ele>
        <time>2014-10-19T08:14:20Z</time>
      </trkpt>
      <trkpt lat="47.42145" lon="6.73663">
        <ele>443.1</ele>
        <time>2014-10-19T08:15:16Z</time>
      </trkpt>
      <trkpt lat="47.42058" lon="6.73625">
        <ele>416.2</ele>
        <time>2014-10-19T08:15:57Z</time>
      </trkpt>
      <trkpt lat="47.42012" lon="6.73622">
        <ele>430.3</ele>
        <time>2014-10-19T08:16:10Z</time>
      </trkpt>
      <trkpt lat="47.41924" lon="6.73586">
        <ele>439.8</ele>
        <time>2014-10-19T08:16:34Z</time>
      </trkpt>
      <trkpt lat="47.41879" lon="6.73584">
        <ele>441.8</ele>
        <time>2014-10-19T08:17:00Z</time>
      </trkpt>
      <trkpt lat="47.41876" lon="6.73568">
        <ele>439.3</ele>
        <time>2014-10-19T08:17:07Z</time>
      </trkpt>
      <trkpt lat="47.41723" lon="6.737">
        <ele>457.3</ele>
        <time>2014-10-19T08:18:35Z</time>
      </trkpt>
      <trkpt lat="47.41683" lon="6.73836">
        <ele>439.7</ele>
        <time>2014-10-19T08:19:43Z</time>
      </trkpt>
      <trkpt lat="47.41684" lon="6.73898">
        <ele>415.9</ele>
        <time>2014-10-19T08:20:12Z</time>
      </trkpt>
      <trkpt lat="47.41632" lon="6.74027">
        <ele>414.6</ele>
        <time>2014-10-19T08:21:23Z</time>
      </trkpt>
      <trkpt lat="47.41575" lon="6.74098">
        <ele>453.5</ele>
        <time>2014-10-19T08:24:33Z</time>
      </trkpt>
      <trkpt lat="47.41586" lon="6.74028">
        <ele>474.7</ele>
        <time>2014-10-19T08:25:34Z</time>
      </trkpt>
      <trkpt lat="47.41576" lon="6.74002">
        <ele>477.9</ele>
        <time>2014-10-19T08:25:49Z</time>
      </trkpt>
      <trkpt lat="47.41552" lon="6.73988">
        <ele>480.3</ele>
        <time>2014-10-19T08:26:04Z</time>
      </trkpt>
      <trkpt lat="47.41481" lon="6.73859">
        <ele>490.6</ele>
        <time>2014-10-19T08:27:13Z</time>
      </trkpt>
      <trkpt lat="47.41392" lon="6.73804">
        <ele>477.2</ele>
        <time>2014-10-19T08:28:26Z</time>
      </trkpt>
      <trkpt lat="47.41376" lon="6.73808">
        <ele>471.8</ele>
        <time>2014-10-19T08:28:43Z</time>
      </trkpt>
      <trkpt lat="47.4136" lon="6.73786">
        <ele>476.2</ele>
        <time>2014-10-19T08:28:54Z</time>
      </trkpt>
      <trkpt lat="47.41326" lon="6.73608">
        <ele>520.5</ele>
        <time>2014-10-19T08:30:33.999Z</time>
      </trkpt>
      <trkpt lat="47.41321" lon="6.73619">
        <ele>518.1</ele>
        <time>2014-10-19T08:30:36Z</time>
      </trkpt>
      <trkpt lat="47.41325" lon="6.7361">
        <ele>512.3</ele>
        <time>2014-10-19T08:31:18Z</time>
      </trkpt>
      <trkpt lat="47.41288" lon="6.73674">
        <ele>511.5</ele>
        <time>2014-10-19T08:32:07Z</time>
      </trkpt>
      <trkpt lat="47.41207" lon="6.73763">
        <ele>518.9</ele>
        <time>2014-10-19T08:33:03Z</time>
      </trkpt>
      <trkpt lat="47.41184" lon="6.73771">
        <ele>526.2</ele>
        <time>2014-10-19T08:33:18Z</time>
      </trkpt>
      <trkpt lat="47.41113" lon="6.73856">
        <ele>516.5</ele>
        <time>2014-10-19T08:34:07Z</time>
      </trkpt>
      <trkpt lat="47.41078" lon="6.73871">
        <ele>510.8</ele>
        <time>2014-10-19T08:34:28Z</time>
      </trkpt>
      <trkpt lat="47.41032" lon="6.73919">
        <ele>512.7</ele>
        <time>2014-10-19T08:34:57Z</time>
      </trkpt>
      <trkpt lat="47.41033" lon="6.73943">
        <ele>511.8</ele>
        <time>2014-10-19T08:35:03Z</time>
      </trkpt>
      <trkpt lat="47.40979" lon="6.74059">
        <ele>540.4</ele>
        <time>2014-10-19T08:35:36Z</time>
      </trkpt>
      <trkpt lat="47.40937" lon="6.7411">
        <ele>547.7</ele>
        <time>2014-10-19T08:35:52Z</time>
      </trkpt>
      <trkpt lat="47.40684" lon="6.74029">
        <ele>541.3</ele>
        <time>2014-10-19T08:38:32Z</time>
      </trkpt>
      <trkpt lat="47.40585" lon="6.74031">
        <ele>532.7</ele>
        <time>2014-10-19T08:39:08Z</time>
      </trkpt>
      <trkpt lat="47.40547" lon="6.74017">
        <ele>529.1</ele>
        <time>2014-10-19T08:39:22Z</time>
      </trkpt>
      <trkpt lat="47.40497" lon="6.74023">
        <ele>524.4</ele>
        <time>2014-10-19T08:39:35Z</time>
      </trkpt>
      <trkpt lat="47.40412" lon="6.73952">
        <ele>533.3</ele>
        <time>2014-10-19T08:40:05Z</time>
      </trkpt>
      <trkpt lat="47.40415" lon="6.73922">
        <ele>535.4</ele>
        <time>2014-10-19T08:40:16Z</time>
      </trkpt>
      <trkpt lat="47.40513" lon="6.73803">
        <ele>530</ele>
        <time>2014-10-19T08:41:16Z</time>
      </trkpt>
      <trkpt lat="47.40462" lon="6.73416">
        <ele>461.4</ele>
        <time>2014-10-19T08:42:27Z</time>
      </trkpt>
      <trkpt lat="47.40436" lon="6.73379">
        <ele>494</ele>
        <time>2014-10-19T08:42:49Z</time>
      </trkpt>
      <trkpt lat="47.40424" lon="6.7338">
        <ele>505.1</ele>
        <time>2014-10-19T08:42:57Z</time>
      </trkpt>
      <trkpt lat="47.40441" lon="6.73512">
        <ele>496.1</ele>
        <time>2014-10-19T08:43:21Z</time>
      </trkpt>
      <trkpt lat="47.40467" lon="6.7359">
        <ele>495.2</ele>
        <time>2014-10-19T08:43:32Z</time>
      </trkpt>
      <trkpt lat="47.40441" lon="6.73639">
        <ele>509.4</ele>
        <time>2014-10-19T08:43:54Z</time>
      </trkpt>
      <trkpt lat="47.40405" lon="6.73598">
        <ele>498.3</ele>
        <time>2014-10-19T08:44:21Z</time>
      </trkpt>
      <trkpt lat="47.40384" lon="6.73507">
        <ele>484.8</ele>
        <time>2014-10-19T08:44:32Z</time>
      </trkpt>
      <trkpt lat="47.40379" lon="6.73387">
        <ele>462.3</ele>
        <time>2014-10-19T08:44:46Z</time>
      </trkpt>
      <trkpt lat="47.40312" lon="6.7321">
        <ele>420.8</ele>
        <time>2014-10-19T08:45:04Z</time>
      </trkpt>
      <trkpt lat="47.40316" lon="6.73065">
        <ele>415.9</ele>
        <time>2014-10-19T08:45:15Z</time>
      </trkpt>
      <trkpt lat="47.40337" lon="6.73013">
        <ele>420.4</ele>
        <time>2014-10-19T08:45:24Z</time>
      </trkpt>
      <trkpt lat="47.40356" lon="6.72908">
        <ele>448.7</ele>
        <time>2014-10-19T08:45:52Z</time>
      </trkpt>
      <trkpt lat="47.40443" lon="6.72877">
        <ele>442.2</ele>
        <time>2014-10-19T08:47:09Z</time>
      </trkpt>
      <trkpt lat="47.40493" lon="6.72832">
        <ele>436.5</ele>
        <time>2014-10-19T08:47:24Z</time>
      </trkpt>
      <trkpt lat="47.40544" lon="6.72707">
        <ele>428.4</ele>
        <time>2014-10-19T08:47:43Z</time>
      </trkpt>
      <trkpt lat="47.40509" lon="6.72506">
        <ele>393</ele>
        <time>2014-10-19T08:48:26Z</time>
      </trkpt>
      <trkpt lat="47.40495" lon="6.72483">
        <ele>401</ele>
        <time>2014-10-19T08:48:35Z</time>
      </trkpt>
      <trkpt lat="47.40438" lon="6.72497">
        <ele>359.9</ele>
        <time>2014-10-19T08:48:55Z</time>
      </trkpt>
      <trkpt lat="47.40335" lon="6.72414">
        <ele>424.6</ele>
        <time>2014-10-19T08:49:19Z</time>
      </trkpt>
      <trkpt lat="47.40331" lon="6.72387">
        <ele>427.7</ele>
        <time>2014-10-19T08:49:20Z</time>
      </trkpt>
      <trkpt lat="47.40227" lon="6.72336">
        <ele>439.8</ele>
        <time>2014-10-19T08:50:02Z</time>
      </trkpt>
      <trkpt lat="47.40111" lon="6.72324">
        <ele>441.7</ele>
        <time>2014-10-19T08:51:00Z</time>
      </trkpt>
      <trkpt lat="47.40053" lon="6.72199">
        <ele>467.3</ele>
        <time>2014-10-19T08:51:52Z</time>
      </trkpt>
      <trkpt lat="47.39979" lon="6.72134">
        <ele>436.8</ele>
        <time>2014-10-19T08:52:34Z</time>
      </trkpt>
      <trkpt lat="47.39979" lon="6.72099">
        <ele>457</ele>
        <time>2014-10-19T08:52:50Z</time>
      </trkpt>
      <trkpt lat="47.4001" lon="6.72088">
        <ele>462.8</ele>
        <time>2014-10-19T08:53:08Z</time>
      </trkpt>
      <trkpt lat="47.40086" lon="6.72125">
        <ele>469.6</ele>
        <time>2014-10-19T08:54:13Z</time>
      </trkpt>
      <trkpt lat="47.40102" lon="6.72109">
        <ele>474</ele>
        <time>2014-10-19T08:54:28Z</time>
      </trkpt>
      <trkpt lat="47.40097" lon="6.72054">
        <ele>463.9</ele>
        <time>2014-10-19T08:54:46Z</time>
      </trkpt>
      <trkpt lat="47.40119" lon="6.71919">
        <ele>488.7</ele>
        <time>2014-10-19T08:55:26Z</time>
      </trkpt>
      <trkpt lat="47.40054" lon="6.71977">
        <ele>503.4</ele>
        <time>2014-10-19T08:57:28Z</time>
      </trkpt>
      <trkpt lat="47.39936" lon="6.71922">
        <ele>503</ele>
        <time>2014-10-19T08:58:22Z</time>
      </trkpt>
      <trkpt lat="47.39883" lon="6.71919">
        <ele>503.4</ele>
        <time>2014-10-19T08:58:49.999Z</time>
      </trkpt>
      <trkpt lat="47.3982" lon="6.71862">
        <ele>518.2</ele>
        <time>2014-10-19T08:59:23Z</time>
      </trkpt>
      <trkpt lat="47.39713" lon="6.71813">
        <ele>521.2</ele>
        <time>2014-10-19T09:00:09.001Z</time>
      </trkpt>
      <trkpt lat="47.39621" lon="6.7185">
        <ele>517.5</ele>
        <time>2014-10-19T09:00:54Z</time>
      </trkpt>
      <trkpt lat="47.39614" lon="6.7181">
        <ele>534.2</ele>
        <time>2014-10-19T09:03:32Z</time>
      </trkpt>
      <trkpt lat="47.39626" lon="6.71668">
        <ele>532.8</ele>
        <time>2014-10-19T09:04:22Z</time>
      </trkpt>
      <trkpt lat="47.39624" lon="6.71504">
        <ele>533</ele>
        <time>2014-10-19T09:05:01Z</time>
      </trkpt>
      <trkpt lat="47.39634" lon="6.71473">
        <ele>533.9</ele>
        <time>2014-10-19T09:05:14Z</time>
      </trkpt>
      <trkpt lat="47.39837" lon="6.71327">
        <ele>522.8</ele>
        <time>2014-10-19T09:09:09Z</time>
      </trkpt>
      <trkpt lat="47.39899" lon="6.71322">
        <ele>515.2</ele>
        <time>2014-10-19T09:09:16Z</time>
      </trkpt>
      <trkpt lat="47.3995" lon="6.71289">
        <ele>514.4</ele>
        <time>2014-10-19T09:09:24Z</time>
      </trkpt>
      <trkpt lat="47.40006" lon="6.71205">
        <ele>508.7</ele>
        <time>2014-10-19T09:09:38Z</time>
      </trkpt>
      <trkpt lat="47.39972" lon="6.70949">
        <ele>496.5</ele>
        <time>2014-10-19T09:10:28Z</time>
      </trkpt>
      <trkpt lat="47.40013" lon="6.70758">
        <ele>458.9</ele>
        <time>2014-10-19T09:11:05Z</time>
      </trkpt>
      <trkpt lat="47.39997" lon="6.70696">
        <ele>452.9</ele>
        <time>2014-10-19T09:11:11Z</time>
      </trkpt>
      <trkpt lat="47.40006" lon="6.70576">
        <ele>476.9</ele>
        <time>2014-10-19T09:11:23Z</time>
      </trkpt>
      <trkpt lat="47.39999" lon="6.70433">
        <ele>466.9</ele>
        <time>2014-10-19T09:11:43Z</time>
      </trkpt>
      <trkpt lat="47.40066" lon="6.70375">
        <ele>475.7</ele>
        <time>2014-10-19T09:12:01Z</time>
      </trkpt>
      <trkpt lat="47.40097" lon="6.70395">
        <ele>479.1</ele>
        <time>2014-10-19T09:12:09Z</time>
      </trkpt>
      <trkpt lat="47.40121" lon="6.70381">
        <ele>472.9</ele>
        <time>2014-10-19T09:12:22Z</time>
      </trkpt>
      <trkpt lat="47.40208" lon="6.70404">
        <ele>454.8</ele>
        <time>2014-10-19T09:12:46Z</time>
      </trkpt>
      <trkpt lat="47.4027" lon="6.70482">
        <ele>444.5</ele>
        <time>2014-10-19T09:13:03Z</time>
      </trkpt>
      <trkpt lat="47.40308" lon="6.70501">
        <ele>443</ele>
        <time>2014-10-19T09:13:06Z</time>
      </trkpt>
      <trkpt lat="47.404" lon="6.70608">
        <ele>450.4</ele>
        <time>2014-10-19T09:14:15Z</time>
      </trkpt>
      <trkpt lat="47.40459" lon="6.70646">
        <ele>451.8</ele>
        <time>2014-10-19T09:14:22Z</time>
      </trkpt>
      <trkpt lat="47.40507" lon="6.70641">
        <ele>445.4</ele>
        <time>2014-10-19T09:14:35Z</time>
      </trkpt>
      <trkpt lat="47.40643" lon="6.70545">
        <ele>418.5</ele>
        <time>2014-10-19T09:15:08Z</time>
      </trkpt>
      <trkpt lat="47.40665" lon="6.7046">
        <ele>414.7</ele>
        <time>2014-10-19T09:15:23Z</time>
      </trkpt>
      <trkpt lat="47.40709" lon="6.70427">
        <ele>413.1</ele>
        <time>2014-10-19T09:15:33Z</time>
      </trkpt>
      <trkpt lat="47.40904" lon="6.70431">
        <ele>415.2</ele>
        <time>2014-10-19T09:16:04Z</time>
      </trkpt>
      <trkpt lat="47.40944" lon="6.7039">
        <ele>398.9</ele>
        <time>2014-10-19T09:19:00Z</time>
      </trkpt>
      <trkpt lat="47.41043" lon="6.70431">
        <ele>400.9</ele>
        <time>2014-10-19T09:19:20Z</time>
      </trkpt>
      <trkpt lat="47.41082" lon="6.70418">
        <ele>397.4</ele>
        <time>2014-10-19T09:19:28Z</time>
      </trkpt>
      <trkpt lat="47.41083" lon="6.70392">
        <ele>389.3</ele>
        <time>2014-10-19T09:19:32Z</time>
      </trkpt>
      <trkpt lat="47.41129" lon="6.70285">
        <ele>385.4</ele>
        <time>2014-10-19T09:19:45Z</time>
      </trkpt>
      <trkpt lat="47.41128" lon="6.70253">
        <ele>380.3</ele>
        <time>2014-10-19T09:19:50Z</time>
      </trkpt>
      <trkpt lat="47.41145" lon="6.7023">
        <ele>380.2</ele>
        <time>2014-10-19T09:20:41Z</time>
      </trkpt>
      <trkpt lat="47.41138" lon="6.70195">
        <ele>384.3</ele>
        <time>2014-10-19T09:20:54Z</time>
      </trkpt>
      <trkpt lat="47.41182" lon="6.70169">
        <ele>381.4</ele>
        <time>2014-10-19T09:21:14Z</time>
      </trkpt>
      <trkpt lat="47.41276" lon="6.7015">
        <ele>377.6</ele>
        <time>2014-10-19T09:21:40Z</time>
      </trkpt>
      <trkpt lat="47.41376" lon="6.70037">
        <ele>373.7</ele>
        <time>2014-10-19T09:22:15Z</time>
      </trkpt>
      <trkpt lat="47.41429" lon="6.70025">
        <ele>367.6</ele>
        <time>2014-10-19T09:22:26Z</time>
      </trkpt>
      <trkpt lat="47.41477" lon="6.70042">
        <ele>359.6</ele>
        <time>2014-10-19T09:22:36Z</time>
      </trkpt>
      <trkpt lat="47.41644" lon="6.69987">
        <ele>357.7</ele>
        <time>2014-10-19T09:23:10Z</time>
      </trkpt>
      <trkpt lat="47.41703" lon="6.70003">
        <ele>362.3</ele>
        <time>2014-10-19T09:23:25Z</time>
      </trkpt>
      <trkpt lat="47.41853" lon="6.69982">
        <ele>360.9</ele>
        <time>2014-10-19T09:23:52.999Z</time>
      </trkpt>
      <trkpt lat="47.41896" lon="6.69952">
        <ele>359.2</ele>
        <time>2014-10-19T09:24:03Z</time>
      </trkpt>
      <trkpt lat="47.42086" lon="6.69916">
        <ele>360.3</ele>
        <time>2014-10-19T09:24:42Z</time>
      </trkpt>
      <trkpt lat="47.42218" lon="6.69831">
        <ele>364.3</ele>
        <time>2014-10-19T09:25:03Z</time>
      </trkpt>
      <trkpt lat="47.42242" lon="6.69867">
        <ele>358.9</ele>
        <time>2014-10-19T09:25:12Z</time>
      </trkpt>
      <trkpt lat="47.42319" lon="6.69876">
        <ele>364.1</ele>
        <time>2014-10-19T09:25:41Z</time>
      </trkpt>
      <trkpt lat="47.42331" lon="6.69759">
        <ele>367.6</ele>
        <time>2014-10-19T09:26:22Z</time>
      </trkpt>
      <trkpt lat="47.42336" lon="6.69835">
        <ele>363.3</ele>
        <time>2014-10-19T09:26:46Z</time>
      </trkpt>
      <trkpt lat="47.42303" lon="6.69872">
        <ele>363.8</ele>
        <time>2014-10-19T09:26:54Z</time>
      </trkpt>
      <trkpt lat="47.42234" lon="6.69852">
        <ele>361.7</ele>
        <time>2014-10-19T09:27:36Z</time>
      </trkpt>
      <trkpt lat="47.4224" lon="6.69867">
        <ele>360.6</ele>
        <time>2014-10-19T09:27:43Z</time>
      </trkpt>
      <trkpt lat="47.42334" lon="6.69877">
        <ele>367.4</ele>
        <time>2014-10-19T09:28:11Z</time>
      </trkpt>
      <trkpt lat="47.42348" lon="6.69803">
        <ele>359.5</ele>
        <time>2014-10-19T09:28:31Z</time>
      </trkpt>
      <trkpt lat="47.4235" lon="6.6969">
        <ele>366.8</ele>
        <time>2014-10-19T09:28:56Z</time>
      </trkpt>
      <trkpt lat="47.42329" lon="6.69723">
        <ele>369</ele>
        <time>2014-10-19T09:29:34Z</time>
      </trkpt>
      <trkpt lat="47.42351" lon="6.69656">
        <ele>374</ele>
        <time>2014-10-19T09:30:08Z</time>
      </trkpt>
      <trkpt lat="47.42395" lon="6.69629">
        <ele>377.3</ele>
        <time>2014-10-19T09:30:24Z</time>
      </trkpt>
      <trkpt lat="47.42429" lon="6.69564">
        <ele>382.9</ele>
        <time>2014-10-19T09:30:48Z</time>
      </trkpt>
      <trkpt lat="47.42449" lon="6.69563">
        <ele>386.5</ele>
        <time>2014-10-19T09:30:57Z</time>
      </trkpt>
      <trkpt lat="47.42446" lon="6.69598">
        <ele>384.4</ele>
        <time>2014-10-19T09:31:05.999Z</time>
      </trkpt>
      <trkpt lat="47.42422" lon="6.69634">
        <ele>388.6</ele>
        <time>2014-10-19T09:31:20Z</time>
      </trkpt>
      <trkpt lat="47.42398" lon="6.69809">
        <ele>397</ele>
        <time>2014-10-19T09:32:04Z</time>
      </trkpt>
      <trkpt lat="47.42406" lon="6.69868">
        <ele>395.7</ele>
        <time>2014-10-19T09:32:24Z</time>
      </trkpt>
      <trkpt lat="47.42408" lon="6.69855">
        <ele>392.6</ele>
        <time>2014-10-19T09:32:41Z</time>
      </trkpt>
      <trkpt lat="47.42419" lon="6.6992">
        <ele>405.2</ele>
        <time>2014-10-19T09:33:24.999Z</time>
      </trkpt>
      <trkpt lat="47.42476" lon="6.70004">
        <ele>408.9</ele>
        <time>2014-10-19T09:34:05Z</time>
      </trkpt>
      <trkpt lat="47.42662" lon="6.70092">
        <ele>381.1</ele>
        <time>2014-10-19T09:35:26Z</time>
      </trkpt>
      <trkpt lat="47.42676" lon="6.70116">
        <ele>385.7</ele>
        <time>2014-10-19T09:35:33Z</time>
      </trkpt>
      <trkpt lat="47.42822" lon="6.70206">
        <ele>358.2</ele>
        <time>2014-10-19T09:36:39Z</time>
      </trkpt>
      <trkpt lat="47.42863" lon="6.70277">
        <ele>358.9</ele>
        <time>2014-10-19T09:37:03Z</time>
      </trkpt>
      <trkpt lat="47.42867" lon="6.70334">
        <ele>368.7</ele>
        <time>2014-10-19T09:37:15Z</time>
      </trkpt>
      <trkpt lat="47.42815" lon="6.70494">
        <ele>413.4</ele>
        <time>2014-10-19T09:37:48Z</time>
      </trkpt>
      <trkpt lat="47.42825" lon="6.70549">
        <ele>434</ele>
        <time>2014-10-19T09:38:00Z</time>
      </trkpt>
      <trkpt lat="47.42933" lon="6.7079">
        <ele>445.5</ele>
        <time>2014-10-19T09:39:20Z</time>
      </trkpt>
      <trkpt lat="47.42956" lon="6.70901">
        <ele>447.5</ele>
        <time>2014-10-19T09:39:42Z</time>
      </trkpt>
      <trkpt lat="47.43029" lon="6.71095">
        <ele>444.3</ele>
        <time>2014-10-19T09:40:10Z</time>
      </trkpt>
      <trkpt lat="47.43161" lon="6.71282">
        <ele>462.2</ele>
        <time>2014-10-19T09:40:55Z</time>
      </trkpt>
      <trkpt lat="47.43227" lon="6.71436">
        <ele>459</ele>
        <time>2014-10-19T09:41:25Z</time>
      </trkpt>
      <trkpt lat="47.43354" lon="6.71608">
        <ele>452.5</ele>
        <time>2014-10-19T09:41:50Z</time>
      </trkpt>
      <trkpt lat="47.43439" lon="6.71753">
        <ele>451.8</ele>
        <time>2014-10-19T09:42:07Z</time>
      </trkpt>
      <trkpt lat="47.43506" lon="6.72033">
        <ele>454.5</ele>
        <time>2014-10-19T09:42:48Z</time>
      </trkpt>
      <trkpt lat="47.43581" lon="6.72219">
        <ele>465.8</ele>
        <time>2014-10-19T09:43:25Z</time>
      </trkpt>
      <trkpt lat="47.43655" lon="6.72345">
        <ele>467.9</ele>
        <time>2014-10-19T09:43:58Z</time>
      </trkpt>
      <trkpt lat="47.43738" lon="6.72296">
        <ele>460.9</ele>
        <time>2014-10-19T09:44:32Z</time>
      </trkpt>
      <trkpt lat="47.43843" lon="6.72432">
        <ele>464.9</ele>
        <time>2014-10-19T09:45:16.999Z</time>
      </trkpt>
      <trkpt lat="47.43932" lon="6.72493">
        <ele>461.5</ele>
        <time>2014-10-19T09:45:42Z</time>
      </trkpt>
      <trkpt lat="47.44062" lon="6.72447">
        <ele>463.1</ele>
        <time>2014-10-19T09:46:08Z</time>
      </trkpt>
      <trkpt lat="47.4411" lon="6.72451">
        <ele>450.6</ele>
        <time>2014-10-19T09:46:22.001Z</time>
      </trkpt>
      <trkpt lat="47.44127" lon="6.72435">
        <ele>455.2</ele>
        <time>2014-10-19T09:46:28Z</time>
      </trkpt>
      <trkpt lat="47.44478" lon="6.72345">
        <ele>465</ele>
        <time>2014-10-19T09:47:35Z</time>
      </trkpt>
      <trkpt lat="47.44489" lon="6.72326">
        <ele>459.6</ele>
        <time>2014-10-19T09:47:40.001Z</time>
      </trkpt>
      <trkpt lat="47.44535" lon="6.72312">
        <ele>434.2</ele>
        <time>2014-10-19T09:47:51.999Z</time>
      </trkpt>
      <trkpt lat="47.44622" lon="6.7233">
        <ele>432.8</ele>
        <time>2014-10-19T09:48:08Z</time>
      </trkpt>
      <trkpt lat="47.448" lon="6.72274">
        <ele>437.1</ele>
        <time>2014-10-19T09:48:38Z</time>
      </trkpt>
      <trkpt lat="47.44856" lon="6.72295">
        <ele>438.3</ele>
        <time>2014-10-19T09:48:44Z</time>
      </trkpt>
      <trkpt lat="47.45304" lon="6.72611">
        <ele>456.3</ele>
        <time>2014-10-19T09:49:50Z</time>
      </trkpt>
      <trkpt lat="47.45387" lon="6.7271">
        <ele>458.3</ele>
        <time>2014-10-19T09:50:13Z</time>
      </trkpt>
      <trkpt lat="47.45435" lon="6.72726">
        <ele>454.1</ele>
        <time>2014-10-19T09:50:28Z</time>
      </trkpt>
      <trkpt lat="47.45432" lon="6.72766">
        <ele>453.8</ele>
        <time>2014-10-19T09:57:20Z</time>
      </trkpt>
      <trkpt lat="47.45458" lon="6.72802">
        <ele>455.1</ele>
        <time>2014-10-19T09:57:32Z</time>
      </trkpt>
      <trkpt lat="47.45474" lon="6.72859">
        <ele>447.1</ele>
        <time>2014-10-19T09:57:45Z</time>
      </trkpt>
      <trkpt lat="47.45559" lon="6.73008">
        <ele>446.9</ele>
        <time>2014-10-19T09:58:18Z</time>
      </trkpt>
      <trkpt lat="47.45578" lon="6.73068">
        <ele>456.9</ele>
        <time>2014-10-19T09:58:33Z</time>
      </trkpt>
      <trkpt lat="47.45588" lon="6.73182">
        <ele>423.4</ele>
        <time>2014-10-19T09:59:06Z</time>
      </trkpt>
      <trkpt lat="47.45477" lon="6.73352">
        <ele>421</ele>
        <time>2014-10-19T09:59:40Z</time>
      </trkpt>
      <trkpt lat="47.4545" lon="6.73423">
        <ele>421.8</ele>
        <time>2014-10-19T09:59:52Z</time>
      </trkpt>
      <trkpt lat="47.45457" lon="6.73584">
        <ele>454.5</ele>
        <time>2014-10-19T10:00:19Z</time>
      </trkpt>
      <trkpt lat="47.45519" lon="6.73655">
        <ele>454.6</ele>
        <time>2014-10-19T10:00:41Z</time>
      </trkpt>
      <trkpt lat="47.45618" lon="6.73674">
        <ele>442.7</ele>
        <time>2014-10-19T10:01:17Z</time>
      </trkpt>
      <trkpt lat="47.45629" lon="6.73704">
        <ele>433.8</ele>
        <time>2014-10-19T10:01:29Z</time>
      </trkpt>
      <trkpt lat="47.45621" lon="6.73708">
        <ele>420.1</ele>
        <time>2014-10-19T10:01:35Z</time>
      </trkpt>
      <trkpt lat="47.45607" lon="6.73858">
        <ele>425.9</ele>
        <time>2014-10-19T10:01:54Z</time>
      </trkpt>
      <trkpt lat="47.45635" lon="6.73929">
        <ele>432</ele>
        <time>2014-10-19T10:02:03Z</time>
      </trkpt>
      <trkpt lat="47.45804" lon="6.74127">
        <ele>418.4</ele>
        <time>2014-10-19T10:02:42Z</time>
      </trkpt>
      <trkpt lat="47.45898" lon="6.74182">
        <ele>418</ele>
        <time>2014-10-19T10:03:02Z</time>
      </trkpt>
      <trkpt lat="47.45944" lon="6.74183">
        <ele>415.4</ele>
        <time>2014-10-19T10:03:11Z</time>
      </trkpt>
      <trkpt lat="47.45972" lon="6.74205">
        <ele>408.1</ele>
        <time>2014-10-19T10:03:19Z</time>
      </trkpt>
      <trkpt lat="47.46067" lon="6.74215">
        <ele>406.3</ele>
        <time>2014-10-19T10:03:54Z</time>
      </trkpt>
      <trkpt lat="47.46265" lon="6.7427">
        <ele>416.8</ele>
        <time>2014-10-19T10:04:54Z</time>
      </trkpt>
      <trkpt lat="47.4643" lon="6.74343">
        <ele>420.1</ele>
        <time>2014-10-19T10:06:03Z</time>
      </trkpt>
      <trkpt lat="47.46466" lon="6.74393">
        <ele>431.8</ele>
        <time>2014-10-19T10:06:13.999Z</time>
      </trkpt>
      <trkpt lat="47.46521" lon="6.74421">
        <ele>421.3</ele>
        <time>2014-10-19T10:06:22Z</time>
      </trkpt>
      <trkpt lat="47.46532" lon="6.74443">
        <ele>410</ele>
        <time>2014-10-19T10:06:26Z</time>
      </trkpt>
      <trkpt lat="47.46601" lon="6.74489">
        <ele>388.6</ele>
        <time>2014-10-19T10:06:36.998Z</time>
      </trkpt>
      <trkpt lat="47.46619" lon="6.74543">
        <ele>376.1</ele>
        <time>2014-10-19T10:06:42Z</time>
      </trkpt>
      <trkpt lat="47.46709" lon="6.74623">
        <ele>351.4</ele>
        <time>2014-10-19T10:06:57Z</time>
      </trkpt>
      <trkpt lat="47.46747" lon="6.7468">
        <ele>351.7</ele>
        <time>2014-10-19T10:07:02Z</time>
      </trkpt>
      <trkpt lat="47.46924" lon="6.74565">
        <ele>339.5</ele>
        <time>2014-10-19T10:08:02Z</time>
      </trkpt>
      <trkpt lat="47.47022" lon="6.74567">
        <ele>327.6</ele>
        <time>2014-10-19T10:08:30Z</time>
      </trkpt>
      <trkpt lat="47.4703" lon="6.74581">
        <ele>326.5</ele>
        <time>2014-10-19T10:09:12Z</time>
      </trkpt>
      <trkpt lat="47.46995" lon="6.74688">
        <ele>321.1</ele>
        <time>2014-10-19T10:10:35Z</time>
      </trkpt>
      <trkpt lat="47.46986" lon="6.74766">
        <ele>320.8</ele>
        <time>2014-10-19T10:10:42Z</time>
      </trkpt>
      <trkpt lat="47.4699" lon="6.7501">
        <ele>323.7</ele>
        <time>2014-10-19T10:11:07Z</time>
      </trkpt>
      <trkpt lat="47.47047" lon="6.75306">
        <ele>321.4</ele>
        <time>2014-10-19T10:11:44Z</time>
      </trkpt>
      <trkpt lat="47.4707" lon="6.75692">
        <ele>334.6</ele>
        <time>2014-10-19T10:12:33Z</time>
      </trkpt>
      <trkpt lat="47.4709" lon="6.75821">
        <ele>340.2</ele>
        <time>2014-10-19T10:12:56Z</time>
      </trkpt>
      <trkpt lat="47.47085" lon="6.75987">
        <ele>327.1</ele>
        <time>2014-10-19T10:13:20Z</time>
      </trkpt>
      <trkpt lat="47.47278" lon="6.76068">
        <ele>325.9</ele>
        <time>2014-10-19T10:14:02Z</time>
      </trkpt>
      <trkpt lat="47.47404" lon="6.76232">
        <ele>325.5</ele>
        <time>2014-10-19T10:14:34.999Z</time>
      </trkpt>
      <trkpt lat="47.47413" lon="6.76315">
        <ele>316.7</ele>
        <time>2014-10-19T10:14:45Z</time>
      </trkpt>
      <trkpt lat="47.47376" lon="6.7638">
        <ele>316.3</ele>
        <time>2014-10-19T10:14:58Z</time>
      </trkpt>
      <trkpt lat="47.47431" lon="6.76463">
        <ele>303.6</ele>
        <time>2014-10-19T10:15:18Z</time>
      </trkpt>
      <trkpt lat="47.47438" lon="6.76442">
        <ele>299.1</ele>
        <time>2014-10-19T10:15:21Z</time>
      </trkpt>
      <trkpt lat="47.47495" lon="6.76448">
        <ele>299.7</ele>
        <time>2014-10-19T10:15:32Z</time>
      </trkpt>
      <trkpt lat="47.47545" lon="6.76367">
        <ele>299.3</ele>
        <time>2014-10-19T10:15:44Z</time>
      </trkpt>
      <trkpt lat="47.47551" lon="6.76337">
        <ele>299.4</ele>
        <time>2014-10-19T10:15:48Z</time>
      </trkpt>
      <trkpt lat="47.4762" lon="6.76221">
        <ele>298.6</ele>
        <time>2014-10-19T10:16:05Z</time>
      </trkpt>
      <trkpt lat="47.47671" lon="6.76084">
        <ele>298.7</ele>
        <time>2014-10-19T10:16:24Z</time>
      </trkpt>
      <trkpt lat="47.47773" lon="6.76248">
        <ele>299.3</ele>
        <time>2014-10-19T10:16:52Z</time>
      </trkpt>
      <trkpt lat="47.47826" lon="6.76283">
        <ele>297.8</ele>
        <time>2014-10-19T10:17:02Z</time>
      </trkpt>
      <trkpt lat="47.4791" lon="6.76454">
        <ele>301.8</ele>
        <time>2014-10-19T10:17:25Z</time>
      </trkpt>
      <trkpt lat="47.47946" lon="6.76622">
        <ele>302.6</ele>
        <time>2014-10-19T10:17:48Z</time>
      </trkpt>
      <trkpt lat="47.48032" lon="6.76576">
        <ele>302.8</ele>
        <time>2014-10-19T10:18:11Z</time>
      </trkpt>
      <trkpt lat="47.48095" lon="6.76507">
        <ele>301.3</ele>
        <time>2014-10-19T10:18:25Z</time>
      </trkpt>
      <trkpt lat="47.48112" lon="6.76538">
        <ele>302.9</ele>
        <time>2014-10-19T10:18:31Z</time>
      </trkpt>
      <trkpt lat="47.48092" lon="6.76634">
        <ele>295.1</ele>
        <time>2014-10-19T10:18:43Z</time>
      </trkpt>
      <trkpt lat="47.48155" lon="6.76753">
        <ele>297</ele>
        <time>2014-10-19T10:18:58Z</time>
      </trkpt>
      <trkpt lat="47.48181" lon="6.76781">
        <ele>294.6</ele>
        <time>2014-10-19T10:19:02Z</time>
      </trkpt>
      <trkpt lat="47.48237" lon="6.76803">
        <ele>304</ele>
        <time>2014-10-19T10:19:10Z</time>
      </trkpt>
      <trkpt lat="47.48291" lon="6.7688">
        <ele>303.5</ele>
        <time>2014-10-19T10:19:19Z</time>
      </trkpt>
      <trkpt lat="47.48368" lon="6.76932">
        <ele>306.3</ele>
        <time>2014-10-19T10:19:30Z</time>
      </trkpt>
      <trkpt lat="47.48429" lon="6.76954">
        <ele>340.3</ele>
        <time>2014-10-19T10:19:39Z</time>
      </trkpt>
      <trkpt lat="47.48618" lon="6.77087">
        <ele>314.2</ele>
        <time>2014-10-19T10:20:08Z</time>
      </trkpt>
      <trkpt lat="47.4883" lon="6.77278">
        <ele>301.6</ele>
        <time>2014-10-19T10:20:48Z</time>
      </trkpt>
      <trkpt lat="47.48953" lon="6.7732">
        <ele>302.2</ele>
        <time>2014-10-19T10:21:10Z</time>
      </trkpt>
      <trkpt lat="47.49283" lon="6.77328">
        <ele>295.3</ele>
        <time>2014-10-19T10:25:57Z</time>
      </trkpt>
      <trkpt lat="47.49326" lon="6.77345">
        <ele>298</ele>
        <time>2014-10-19T10:26:03Z</time>
      </trkpt>
      <trkpt lat="47.49574" lon="6.77363">
        <ele>299.5</ele>
        <time>2014-10-19T10:26:48Z</time>
      </trkpt>
      <trkpt lat="47.49712" lon="6.77334">
        <ele>300</ele>
        <time>2014-10-19T10:27:15Z</time>
      </trkpt>
      <trkpt lat="47.49752" lon="6.77306">
        <ele>298.8</ele>
        <time>2014-10-19T10:27:32Z</time>
      </trkpt>
      <trkpt lat="47.49865" lon="6.77298">
        <ele>299.7</ele>
        <time>2014-10-19T10:27:54Z</time>
      </trkpt>
      <trkpt lat="47.49931" lon="6.77257">
        <ele>294.9</ele>
        <time>2014-10-19T10:28:08Z</time>
      </trkpt>
      <trkpt lat="47.5009" lon="6.77197">
        <ele>296</ele>
        <time>2014-10-19T10:28:55Z</time>
      </trkpt>
      <trkpt lat="47.50126" lon="6.77203">
        <ele>292.8</ele>
        <time>2014-10-19T10:29:01Z</time>
      </trkpt>
      <trkpt lat="47.50536" lon="6.77523">
        <ele>305.5</ele>
        <time>2014-10-19T10:30:19Z</time>
      </trkpt>
      <trkpt lat="47.50554" lon="6.77554">
        <ele>303.8</ele>
        <time>2014-10-19T10:30:24Z</time>
      </trkpt>
      <trkpt lat="47.5058" lon="6.77535">
        <ele>303.8</ele>
        <time>2014-10-19T10:30:31Z</time>
      </trkpt>
      <trkpt lat="47.50711" lon="6.77532">
        <ele>304.3</ele>
        <time>2014-10-19T10:30:57Z</time>
      </trkpt>
      <trkpt lat="47.50847" lon="6.77648">
        <ele>301</ele>
        <time>2014-10-19T10:31:24Z</time>
      </trkpt>
      <trkpt lat="47.50885" lon="6.77708">
        <ele>300.8</ele>
        <time>2014-10-19T10:31:36Z</time>
      </trkpt>
      <trkpt lat="47.50952" lon="6.77691">
        <ele>300.7</ele>
        <time>2014-10-19T10:32:11.001Z</time>
      </trkpt>
      <trkpt lat="47.51049" lon="6.77769">
        <ele>316.4</ele>
        <time>2014-10-19T10:32:42Z</time>
      </trkpt>
      <trkpt lat="47.51156" lon="6.7779">
        <ele>312.6</ele>
        <time>2014-10-19T10:33:15Z</time>
      </trkpt>
      <trkpt lat="47.5133" lon="6.77778">
        <ele>308.1</ele>
        <time>2014-10-19T10:34:46Z</time>
      </trkpt>
      <trkpt lat="47.51433" lon="6.77725">
        <ele>328.2</ele>
        <time>2014-10-19T10:35:48Z</time>
      </trkpt>
      <trkpt lat="47.51541" lon="6.77713">
        <ele>314.7</ele>
        <time>2014-10-19T10:37:04Z</time>
      </trkpt>
      <trkpt lat="47.51582" lon="6.77751">
        <ele>330.9</ele>
        <time>2014-10-19T10:37:32Z</time>
      </trkpt>
      <trkpt lat="47.51676" lon="6.77761">
        <ele>353.1</ele>
        <time>2014-10-19T10:38:29Z</time>
      </trkpt>
      <trkpt lat="47.51711" lon="6.77639">
        <ele>373.8</ele>
        <time>2014-10-19T10:39:17Z</time>
      </trkpt>
      <trkpt lat="47.51737" lon="6.77478">
        <ele>390.6</ele>
        <time>2014-10-19T10:40:05Z</time>
      </trkpt>
      <trkpt lat="47.51805" lon="6.77495">
        <ele>386.2</ele>
        <time>2014-10-19T10:40:23Z</time>
      </trkpt>
      <trkpt lat="47.51806" lon="6.77483">
        <ele>386.5</ele>
        <time>2014-10-19T10:40:35Z</time>
      </trkpt>
    </trkseg>
  </trk>
</gpx>